createdAt,value
2022-08-12T00:00:09.929Z,15.90
2022-08-12T00:02:56.014Z,15.91
2022-08-12T00:06:00.437Z,15.94
2022-08-12T00:08:53.021Z,15.89
2022-08-12T00:11:39.814Z,15.78
2022-08-12T00:14:26.299Z,15.73
2022-08-12T00:17:12.175Z,15.75
2022-08-12T00:19:58.174Z,15.80
2022-08-12T00:22:44.220Z,15.74
2022-08-12T00:26:19.042Z,15.70
2022-08-12T00:28:36.824Z,15.72
2022-08-12T00:31:23.073Z,15.77
2022-08-12T00:34:09.059Z,15.82
2022-08-12T00:37:00.896Z,15.84
2022-08-12T00:39:52.216Z,15.90
2022-08-12T00:42:23.737Z,15.85
2022-08-12T00:44:52.549Z,15.84
2022-08-12T00:47:24.793Z,15.84
2022-08-12T00:49:56.000Z,15.81
2022-08-12T00:52:25.918Z,15.83
2022-08-12T00:54:58.025Z,15.80
2022-08-12T00:57:32.367Z,15.83
2022-08-12T01:00:03.405Z,15.82
2022-08-12T01:02:35.171Z,15.89
2022-08-12T01:05:26.026Z,15.92
2022-08-12T01:08:12.965Z,15.88
2022-08-12T01:11:03.821Z,15.86
2022-08-12T01:13:40.076Z,15.86
2022-08-12T01:16:10.714Z,15.91
2022-08-12T01:18:42.142Z,15.91
2022-08-12T01:21:20.553Z,15.81
2022-08-12T01:24:29.893Z,15.89
2022-08-12T01:26:57.037Z,15.99
2022-08-12T01:29:32.584Z,15.99
2022-08-12T01:32:08.696Z,15.99
2022-08-12T01:34:40.650Z,15.95
2022-08-12T01:37:11.431Z,15.85
2022-08-12T01:40:31.677Z,15.80
2022-08-12T01:42:48.325Z,15.70
2022-08-12T01:45:24.434Z,15.59
2022-08-12T01:48:12.942Z,15.57
2022-08-12T01:51:06.449Z,15.60
2022-08-12T01:53:57.347Z,15.44
2022-08-12T01:56:29.796Z,15.35
2022-08-12T01:59:22.113Z,15.26
2022-08-12T02:01:55.303Z,15.25
2022-08-12T02:04:50.475Z,15.25
2022-08-12T02:07:55.910Z,15.29
2022-08-12T02:11:03.240Z,15.33
2022-08-12T02:14:24.524Z,15.26
2022-08-12T02:17:16.248Z,15.32
2022-08-12T02:20:02.629Z,15.27
2022-08-12T02:22:38.536Z,15.47
2022-08-12T02:25:14.560Z,15.32
2022-08-12T02:27:47.037Z,15.18
2022-08-12T02:30:19.569Z,15.07
2022-08-12T02:32:52.892Z,14.97
2022-08-12T02:35:23.243Z,14.92
2022-08-12T02:37:53.870Z,14.78
2022-08-12T02:40:24.560Z,14.73
2022-08-12T02:42:59.661Z,14.67
2022-08-12T02:45:38.353Z,14.66
2022-08-12T02:48:15.591Z,14.61
2022-08-12T02:50:51.438Z,14.59
2022-08-12T02:53:20.992Z,14.59
2022-08-12T02:55:50.301Z,14.60
2022-08-12T02:58:20.134Z,14.59
2022-08-12T03:01:03.469Z,14.60
2022-08-12T03:03:35.388Z,14.58
2022-08-12T03:06:08.285Z,14.45
2022-08-12T03:08:42.288Z,14.41
2022-08-12T03:11:22.638Z,14.36
2022-08-12T03:13:56.194Z,14.34
2022-08-12T03:16:25.503Z,14.28
2022-08-12T03:18:56.179Z,14.19
2022-08-12T03:21:52.179Z,14.16
2022-08-12T03:24:18.593Z,14.09
2022-08-12T03:26:49.673Z,14.03
2022-08-12T03:29:20.870Z,13.97
2022-08-12T03:31:50.206Z,13.92
2022-08-12T03:34:29.845Z,13.88
2022-08-12T03:37:02.808Z,13.83
2022-08-12T03:39:41.804Z,13.82
2022-08-12T03:42:28.240Z,13.81
2022-08-12T03:45:32.041Z,13.76
2022-08-12T03:48:25.547Z,13.77
2022-08-12T03:51:14.573Z,13.73
2022-08-12T03:54:01.938Z,13.78
2022-08-12T03:56:48.020Z,13.84
2022-08-12T03:59:33.923Z,13.78
2022-08-12T04:02:02.220Z,13.73
2022-08-12T04:04:35.176Z,13.74
2022-08-12T04:07:08.912Z,13.82
2022-08-12T04:09:40.383Z,13.81
2022-08-12T04:12:32.359Z,13.90
2022-08-12T04:15:02.767Z,14.03
2022-08-12T04:17:32.872Z,14.02
2022-08-12T04:20:01.509Z,14.00
2022-08-12T04:22:31.702Z,14.06
2022-08-12T04:25:02.470Z,14.15
2022-08-12T04:27:32.459Z,14.23
2022-08-12T04:30:16.475Z,14.36
2022-08-12T04:32:52.234Z,14.41
2022-08-12T04:35:22.485Z,14.44
2022-08-12T04:37:59.908Z,14.48
2022-08-12T04:40:36.426Z,14.69
2022-08-12T04:43:05.826Z,14.83
2022-08-12T04:45:38.030Z,14.85
2022-08-12T04:48:07.494Z,14.94
2022-08-12T04:50:37.290Z,14.98
2022-08-12T04:53:09.351Z,15.06
2022-08-12T04:55:40.026Z,15.13
2022-08-12T04:58:09.321Z,15.19
2022-08-12T05:00:38.976Z,15.33
2022-08-12T05:03:08.532Z,15.47
2022-08-12T05:05:40.724Z,15.61
2022-08-12T05:08:15.816Z,15.74
2022-08-12T05:10:46.351Z,15.88
2022-08-12T05:13:19.015Z,16.02
2022-08-12T05:16:04.694Z,16.16
2022-08-12T05:18:35.455Z,16.27
2022-08-12T05:21:09.678Z,16.36
2022-08-12T05:23:40.684Z,16.48
2022-08-12T05:26:09.063Z,16.64
2022-08-12T05:28:38.088Z,16.74
2022-08-12T05:31:06.978Z,16.87
2022-08-12T05:33:38.441Z,16.97
2022-08-12T05:36:12.612Z,17.10
2022-08-12T05:38:58.796Z,17.23
2022-08-12T05:41:30.407Z,17.43
2022-08-12T05:44:03.009Z,17.58
2022-08-12T05:46:33.237Z,17.71
2022-08-12T05:49:02.257Z,17.92
2022-08-12T05:51:40.099Z,18.10
2022-08-12T05:54:12.330Z,18.35
2022-08-12T05:56:41.522Z,18.54
2022-08-12T05:59:13.981Z,18.78
2022-08-12T06:02:09.172Z,19.00
2022-08-12T06:04:34.570Z,19.36
2022-08-12T06:07:59.710Z,19.60
2022-08-12T06:09:57.641Z,19.96
2022-08-12T06:12:26.324Z,20.54
2022-08-12T06:14:55.702Z,20.93
2022-08-12T06:17:24.040Z,21.40
2022-08-12T06:20:28.138Z,21.73
2022-08-12T06:22:40.939Z,22.12
2022-08-12T06:25:18.490Z,22.56
2022-08-12T06:28:07.926Z,22.72
2022-08-12T06:30:38.987Z,22.84
2022-08-12T06:33:24.766Z,22.99
2022-08-12T06:35:57.569Z,23.34
2022-08-12T06:38:30.301Z,22.98
2022-08-12T06:41:19.064Z,23.08
2022-08-12T06:44:05.455Z,23.27
2022-08-12T06:46:36.814Z,23.56
2022-08-12T06:49:06.865Z,23.74
2022-08-12T06:51:35.349Z,23.86
2022-08-12T06:54:04.260Z,24.30
2022-08-12T06:59:23.449Z,24.65
2022-08-12T07:01:52.155Z,24.88
2022-08-12T07:04:38.228Z,25.11
2022-08-12T07:07:09.741Z,24.77
2022-08-12T07:10:04.681Z,24.79
2022-08-12T07:12:28.955Z,25.03
2022-08-12T07:14:58.265Z,24.96
2022-08-12T07:17:36.588Z,25.25
2022-08-12T07:20:09.923Z,25.58
2022-08-12T07:22:39.761Z,26.01
2022-08-12T07:25:26.270Z,26.10
2022-08-12T07:27:57.837Z,26.29
2022-08-12T07:30:26.572Z,26.24
2022-08-12T07:32:58.615Z,26.18
2022-08-12T07:35:31.374Z,26.01
2022-08-12T07:38:02.628Z,26.53
2022-08-12T07:40:31.302Z,26.43
2022-08-12T07:43:00.952Z,26.73
2022-08-12T07:45:29.292Z,27.23
2022-08-12T07:47:57.632Z,27.12
2022-08-12T07:50:26.675Z,27.63
2022-08-12T07:52:55.073Z,27.72
2022-08-12T07:55:23.444Z,27.68
2022-08-12T07:57:57.973Z,27.10
2022-08-12T08:00:30.945Z,26.60
2022-08-12T08:02:59.913Z,26.71
2022-08-12T08:05:33.103Z,27.27
2022-08-12T08:08:02.570Z,27.46
2022-08-12T08:10:33.746Z,27.64
2022-08-12T08:13:05.257Z,27.63
2022-08-12T08:18:27.457Z,27.74
2022-08-12T08:20:57.672Z,28.11
2022-08-12T08:23:41.453Z,28.71
2022-08-12T08:26:10.372Z,27.95
2022-08-12T08:28:38.653Z,28.33
2022-08-12T08:31:08.413Z,27.90
2022-08-12T08:34:01.466Z,28.42
2022-08-12T08:36:25.084Z,28.99
2022-08-12T08:38:58.059Z,27.96
2022-08-12T08:42:17.368Z,28.50
2022-08-12T08:44:36.402Z,29.27
2022-08-12T08:47:07.563Z,29.22
2022-08-12T08:49:37.137Z,28.97
2022-08-12T08:52:07.675Z,29.14
2022-08-12T08:54:37.792Z,29.81
2022-08-12T08:57:09.940Z,29.06
2022-08-12T08:59:38.262Z,29.07
2022-08-12T09:02:08.679Z,29.52
2022-08-12T09:05:12.799Z,29.74
2022-08-12T09:10:30.441Z,29.80
2022-08-12T09:13:29.159Z,29.66
2022-08-12T09:16:14.882Z,29.71
2022-08-12T09:18:44.826Z,30.26
2022-08-12T09:21:13.921Z,30.29
2022-08-12T09:24:00.491Z,30.71
2022-08-12T09:30:10.470Z,30.66
2022-08-12T09:32:29.489Z,29.65
2022-08-12T09:34:59.967Z,29.72
2022-08-12T09:37:28.557Z,29.86
2022-08-12T09:41:02.491Z,29.54
2022-08-12T09:43:25.220Z,29.32
2022-08-12T09:46:06.798Z,29.40
2022-08-12T09:48:44.611Z,28.21
2022-08-12T09:51:37.721Z,27.60
2022-08-12T09:54:34.613Z,28.07
2022-08-12T09:57:00.739Z,28.06
2022-08-12T10:00:16.370Z,26.70
2022-08-12T10:02:45.432Z,26.54
2022-08-12T10:05:13.264Z,25.76
2022-08-12T10:07:43.754Z,25.35
2022-08-12T10:10:24.091Z,24.67
2022-08-12T10:13:34.706Z,24.68
2022-08-12T10:16:05.838Z,25.36
2022-08-12T10:18:51.549Z,25.60
2022-08-12T10:21:24.194Z,26.52
2022-08-12T10:24:09.298Z,28.21
2022-08-12T10:26:57.204Z,28.61
2022-08-12T10:30:37.385Z,29.76
2022-08-12T10:32:45.078Z,28.64
2022-08-12T10:35:16.489Z,27.20
2022-08-12T10:38:34.639Z,26.49
2022-08-12T10:40:58.591Z,26.10
2022-08-12T10:43:54.877Z,27.47
2022-08-12T10:46:31.074Z,28.26
2022-08-12T10:49:06.861Z,29.36
2022-08-12T10:52:32.578Z,30.08
2022-08-12T10:54:41.313Z,30.27
2022-08-12T10:57:18.265Z,31.07
2022-08-12T11:00:35.274Z,30.33
2022-08-12T11:04:32.103Z,31.09
2022-08-12T11:07:05.632Z,31.53
2022-08-12T11:08:42.169Z,30.82
2022-08-12T11:11:16.846Z,30.71
2022-08-12T11:13:48.926Z,30.50
2022-08-12T11:16:19.645Z,31.81
2022-08-12T11:18:55.476Z,31.87
2022-08-12T11:21:56.105Z,32.38
2022-08-12T11:24:29.976Z,32.60
2022-08-12T11:27:01.362Z,32.54
2022-08-12T11:30:01.845Z,31.60
2022-08-12T11:32:20.137Z,31.19
2022-08-12T11:34:53.001Z,30.88
2022-08-12T11:37:26.534Z,31.93
2022-08-12T11:42:39.612Z,32.64
2022-08-12T11:45:16.890Z,32.05
2022-08-12T11:47:45.830Z,32.29
2022-08-12T11:50:19.091Z,31.33
2022-08-12T11:52:55.256Z,32.30
2022-08-12T11:55:27.551Z,33.09
2022-08-12T11:58:19.862Z,33.57
2022-08-12T12:03:40.418Z,34.37
2022-08-12T12:06:17.032Z,32.82
2022-08-12T12:08:51.104Z,32.34
2022-08-12T12:11:22.092Z,32.49
2022-08-12T12:14:08.125Z,32.42
2022-08-12T12:16:48.127Z,31.96
2022-08-12T12:19:19.407Z,31.79
2022-08-12T12:21:49.523Z,31.37
2022-08-12T12:24:21.317Z,31.21
2022-08-12T12:27:00.311Z,32.22
2022-08-12T12:30:17.771Z,31.24
2022-08-12T12:32:29.574Z,30.55
2022-08-12T12:35:13.070Z,28.46
2022-08-12T12:38:03.966Z,30.39
2022-08-12T12:40:39.746Z,31.58
2022-08-12T12:43:09.225Z,32.00
2022-08-12T12:45:39.512Z,32.48
2022-08-12T12:48:17.288Z,33.17
2022-08-12T12:51:09.352Z,33.41
2022-08-12T12:54:06.411Z,33.52
2022-08-12T12:56:33.894Z,33.86
2022-08-12T12:59:06.060Z,33.25
2022-08-12T13:01:41.809Z,33.91
2022-08-12T13:04:14.444Z,34.31
2022-08-12T13:06:43.051Z,34.14
2022-08-12T13:09:13.521Z,34.10
2022-08-12T13:11:44.571Z,33.32
2022-08-12T13:14:29.483Z,33.98
2022-08-12T13:17:02.349Z,33.83
2022-08-12T13:19:43.438Z,33.96
2022-08-12T13:22:19.967Z,33.56
2022-08-12T13:24:54.785Z,34.51
2022-08-12T13:27:35.737Z,34.20
2022-08-12T13:30:11.375Z,32.14
2022-08-12T13:32:42.534Z,33.37
2022-08-12T13:35:19.730Z,32.37
2022-08-12T13:38:02.500Z,30.57
2022-08-12T13:40:33.833Z,30.45
2022-08-12T13:43:06.300Z,31.56
2022-08-12T13:45:36.663Z,31.18
2022-08-12T13:48:07.220Z,30.51
2022-08-12T13:50:40.433Z,31.73
2022-08-12T13:53:23.960Z,31.51
2022-08-12T13:55:59.647Z,30.43
2022-08-12T13:58:34.760Z,29.46
2022-08-12T14:01:06.319Z,28.28
2022-08-12T14:03:50.476Z,28.21
2022-08-12T14:06:26.062Z,27.90
2022-08-12T14:08:59.722Z,27.59
2022-08-12T14:11:32.215Z,27.24
2022-08-12T14:14:04.260Z,26.90
2022-08-12T14:16:48.758Z,25.90
2022-08-12T14:19:24.165Z,25.96
2022-08-12T14:22:01.091Z,26.22
2022-08-12T14:24:41.171Z,25.87
2022-08-12T14:27:11.323Z,25.65
2022-08-12T14:30:04.315Z,25.99
2022-08-12T14:32:35.293Z,27.11
2022-08-12T14:35:06.532Z,29.07
2022-08-12T14:37:56.782Z,28.60
2022-08-12T14:40:29.131Z,27.61
2022-08-12T14:42:59.285Z,26.60
2022-08-12T14:45:45.030Z,25.94
2022-08-12T14:48:19.674Z,25.25
2022-08-12T14:51:02.776Z,24.62
2022-08-12T14:54:49.855Z,23.97
2022-08-12T14:59:56.281Z,23.43
2022-08-12T15:02:26.531Z,23.64
2022-08-12T15:04:59.120Z,23.76
2022-08-12T15:07:33.764Z,23.80
2022-08-12T15:10:25.366Z,23.97
2022-08-12T15:13:07.504Z,23.90
2022-08-12T15:15:45.651Z,23.91
2022-08-12T15:18:21.373Z,23.90
2022-08-12T15:20:52.284Z,24.03
2022-08-12T15:23:24.202Z,23.93
2022-08-12T15:26:03.592Z,23.86
2022-08-12T15:28:36.980Z,23.89
2022-08-12T15:31:21.407Z,24.08
2022-08-12T15:33:57.440Z,25.25
2022-08-12T15:36:54.404Z,26.68
2022-08-12T15:39:16.703Z,26.73
2022-08-12T15:41:50.062Z,26.34
2022-08-12T15:44:38.109Z,26.27
2022-08-12T15:47:09.623Z,27.13
2022-08-12T15:49:54.214Z,27.61
2022-08-12T15:52:30.675Z,26.91
2022-08-12T15:55:06.317Z,25.56
2022-08-12T15:57:53.830Z,25.11
2022-08-12T16:00:33.164Z,25.25
2022-08-12T16:03:05.315Z,26.62
2022-08-12T16:06:11.487Z,27.32
2022-08-12T16:08:27.376Z,27.12
2022-08-12T16:10:56.881Z,27.31
2022-08-12T16:13:34.838Z,27.68
2022-08-12T16:16:22.922Z,28.41
2022-08-12T16:18:58.603Z,27.83
2022-08-12T16:21:50.674Z,27.35
2022-08-12T16:24:18.666Z,27.68
2022-08-12T16:26:51.444Z,27.27
2022-08-12T16:29:52.548Z,26.78
2022-08-12T16:32:24.142Z,26.24
2022-08-12T16:34:55.549Z,25.88
2022-08-12T16:37:32.383Z,25.80
2022-08-12T16:40:04.911Z,25.22
2022-08-12T16:42:39.127Z,24.86
2022-08-12T16:45:14.137Z,24.68
2022-08-12T16:47:58.169Z,24.53
2022-08-12T16:50:31.092Z,24.61
2022-08-12T16:53:03.307Z,25.01
2022-08-12T16:55:41.749Z,24.94
2022-08-12T16:58:28.566Z,25.19
2022-08-12T17:01:02.317Z,25.24
2022-08-12T17:03:35.244Z,24.70
2022-08-12T17:06:06.438Z,24.51
2022-08-12T17:08:35.572Z,24.30
2022-08-12T17:11:08.527Z,24.37
2022-08-12T17:13:53.073Z,24.04
2022-08-12T17:16:24.768Z,24.10
2022-08-12T17:19:03.257Z,23.74
2022-08-12T17:21:40.170Z,23.73
2022-08-12T17:24:15.272Z,23.75
2022-08-12T17:26:49.266Z,23.80
2022-08-12T17:29:24.163Z,23.69
2022-08-12T17:32:14.489Z,23.67
2022-08-12T17:35:02.256Z,23.62
2022-08-12T17:37:34.027Z,23.45
2022-08-12T17:40:15.986Z,23.14
2022-08-12T17:42:48.229Z,22.88
2022-08-12T17:45:19.581Z,22.73
2022-08-12T17:48:04.773Z,22.70
2022-08-12T17:50:39.775Z,22.76
2022-08-12T17:53:10.885Z,22.69
2022-08-12T17:55:48.094Z,22.57
2022-08-12T17:58:36.974Z,22.51
2022-08-12T18:01:11.032Z,22.54
2022-08-12T18:04:04.912Z,22.45
2022-08-12T18:06:36.099Z,22.39
2022-08-12T18:09:09.683Z,22.16
2022-08-12T18:12:05.036Z,22.11
2022-08-12T18:14:38.277Z,21.97
2022-08-12T18:17:12.165Z,21.90
2022-08-12T18:20:07.040Z,21.79
2022-08-12T18:22:34.250Z,21.62
2022-08-12T18:25:13.727Z,21.33
2022-08-12T18:28:16.680Z,21.14
2022-08-12T18:30:53.249Z,20.98
2022-08-12T18:33:25.658Z,20.83
2022-08-12T18:35:57.025Z,20.75
2022-08-12T18:38:27.863Z,20.63
2022-08-12T18:41:22.472Z,20.46
2022-08-12T18:44:00.710Z,20.28
2022-08-12T18:46:47.201Z,20.15
2022-08-12T18:49:21.649Z,20.08
2022-08-12T18:52:03.993Z,19.99
2022-08-12T18:54:36.378Z,19.91
2022-08-12T18:57:19.928Z,19.87
2022-08-12T19:00:06.802Z,19.75
2022-08-12T19:02:39.786Z,19.64
2022-08-12T19:05:11.914Z,19.53
2022-08-12T19:07:59.988Z,19.49
2022-08-12T19:10:31.940Z,19.27
2022-08-12T19:13:23.923Z,19.18
2022-08-12T19:15:57.736Z,19.10
2022-08-12T19:18:29.764Z,18.78
2022-08-12T19:21:06.447Z,18.64
2022-08-12T19:23:41.981Z,18.66
2022-08-12T19:26:12.746Z,18.62
2022-08-12T19:28:43.035Z,18.52
2022-08-12T19:31:58.421Z,18.45
2022-08-12T19:37:27.032Z,18.11
2022-08-12T19:40:09.104Z,17.89
2022-08-12T19:43:00.954Z,17.70
2022-08-12T19:45:43.472Z,17.62
2022-08-12T19:48:19.960Z,17.52
2022-08-12T19:50:52.520Z,17.43
2022-08-12T19:53:23.887Z,17.38
2022-08-12T19:55:57.391Z,17.28
2022-08-12T19:58:26.978Z,17.14
2022-08-12T20:00:56.077Z,17.08
2022-08-12T20:03:40.591Z,16.97
2022-08-12T20:06:15.553Z,16.91
2022-08-12T20:08:48.761Z,16.80
2022-08-12T20:12:11.678Z,16.71
2022-08-12T20:14:18.936Z,16.68
2022-08-12T20:16:53.014Z,16.65
2022-08-12T20:19:52.770Z,16.62
2022-08-12T20:22:24.270Z,16.61
2022-08-12T20:25:01.390Z,16.59
2022-08-12T20:28:04.006Z,16.54
2022-08-12T20:30:52.710Z,16.48
2022-08-12T20:33:18.447Z,16.44
2022-08-12T20:36:06.442Z,16.42
2022-08-12T20:38:40.383Z,16.43
2022-08-12T20:41:17.636Z,16.43
2022-08-12T20:43:51.793Z,16.34
2022-08-12T20:46:21.354Z,16.31
2022-08-12T20:48:55.247Z,16.32
2022-08-12T20:51:28.152Z,16.27
2022-08-12T20:54:16.709Z,16.14
2022-08-12T20:56:47.165Z,16.09
2022-08-12T20:59:20.078Z,16.05
2022-08-12T21:01:54.220Z,16.06
2022-08-12T21:04:43.688Z,16.01
2022-08-12T21:07:14.331Z,16.03
2022-08-12T21:09:49.078Z,16.03
2022-08-12T21:12:28.482Z,15.89
2022-08-12T21:15:23.079Z,15.89
2022-08-12T21:18:11.872Z,15.87
2022-08-12T21:20:54.721Z,15.89
2022-08-12T21:23:23.863Z,15.96
2022-08-12T21:25:56.230Z,16.00
2022-08-12T21:28:27.447Z,15.95
2022-08-12T21:32:34.484Z,15.95
2022-08-12T21:34:07.331Z,15.93
2022-08-12T21:36:48.151Z,15.91
2022-08-12T21:39:21.137Z,15.81
2022-08-12T21:41:52.943Z,15.73
2022-08-12T21:45:43.453Z,15.68
2022-08-12T21:47:20.871Z,15.62
2022-08-12T21:50:06.124Z,15.55
2022-08-12T21:52:40.419Z,15.52
2022-08-12T21:55:17.693Z,15.57
2022-08-12T21:57:53.502Z,15.52
2022-08-12T22:00:32.989Z,15.58
2022-08-12T22:04:02.280Z,15.62
2022-08-12T22:06:30.383Z,15.64
2022-08-12T22:09:16.850Z,15.65
2022-08-12T22:11:56.003Z,15.60
2022-08-12T22:14:28.267Z,15.50
2022-08-12T22:17:00.644Z,15.49
2022-08-12T22:19:33.805Z,15.48
2022-08-12T22:22:05.304Z,15.43
2022-08-12T22:24:34.517Z,15.41
2022-08-12T22:27:18.277Z,15.43
2022-08-12T22:30:16.528Z,15.46
2022-08-12T22:32:49.699Z,15.39
2022-08-12T22:35:55.765Z,15.24
2022-08-12T22:38:23.793Z,15.16
2022-08-12T22:40:55.541Z,15.16
2022-08-12T22:43:59.247Z,15.09
2022-08-12T22:46:53.163Z,15.04
2022-08-12T22:49:36.597Z,15.08
2022-08-12T22:52:13.918Z,15.03
2022-08-12T22:54:59.950Z,15.02
2022-08-12T22:57:49.031Z,15.03
2022-08-12T23:00:27.176Z,15.00
2022-08-12T23:03:00.510Z,15.07
2022-08-12T23:05:57.110Z,15.10
2022-08-12T23:08:29.942Z,15.03
2022-08-12T23:11:00.697Z,15.07
2022-08-12T23:13:54.899Z,15.10
2022-08-12T23:16:30.943Z,15.18
2022-08-12T23:19:11.059Z,15.24
2022-08-12T23:22:03.567Z,15.17
2022-08-12T23:24:37.152Z,15.14
2022-08-12T23:27:44.156Z,15.09
2022-08-12T23:30:18.692Z,15.02
2022-08-12T23:32:54.519Z,14.97
2022-08-12T23:35:45.866Z,14.91
2022-08-12T23:38:30.760Z,14.92
2022-08-12T23:41:05.701Z,15.03
2022-08-12T23:43:39.076Z,15.12
2022-08-12T23:46:11.073Z,15.20
2022-08-12T23:48:40.873Z,15.23
2022-08-12T23:51:21.956Z,15.33
2022-08-12T23:54:00.266Z,15.32
2022-08-12T23:56:33.105Z,15.27
2022-08-12T23:59:03.718Z,15.24
